Главная страница
METAR-TAF:

METAR-TAF

Аэропорты :

University Park Airport

State College, Пенсильвания, США

широта: 40-51N, долгота: 077-51W, высота над уровнем моря: 378 м

Текущие метеонаблюдения

Эта сводка был подготовлена 20 минут назад, в 00:53 UTC
Штиль
Температура 19°C
Влажность 94%
Давление 1017 hPa
Видимость: 16.1 км
Отдельные облака на высоте 11000 фута

METAR: KUNV 190053Z 00000KT 10SM SCT110 19/18 A3003

Время: 21:13 (01:13 UTC)

Прогноз

Эта сводка был подготовлена 1 час и 37 минут назад, в 23:36 UTC
Прогноз действительный с 19-го 00 UTC до 19-го 24 UTC
Ветер 5 Узел от южный-юго-западный
Видимость: 10 км
Отдельные облака на высоте 5000 фута
Рассеянная облачность на высоте 10000 фута
временами
С 19-го 09 UTC до 19-го 12 UTC
Видимость: 4.8 км
дымка
С 19-го 1700 UTC
Ветер 7 Узел от западный-юго-западный
Видимость: 10 км
Отдельные облака на высоте 5000 фута

TAF: KUNV 182336Z 1900/1924 20005KT P6SM SCT050 BKN100 TEMPO 1909/1912 3SM BR FM191700 24007KT P6SM SCT050

Метеонаблюдения и прогнозы для более 4000 аэропортов (сводки METAR и TAF).

Имеющиеся станции представлены на карте желтыми и красными точками.

Чтобы увидеть название станции, наведите на нее мышь.

Затем щелкните, чтобы увидеть метеонаблюдения и метеопрогнозы.

Управление картой: чтобы увеличить масштаб, щелкните зеленые кнопки с черным крестиком; чтобы уменьшить масштаб, щелкните зеленую кнопку с тире; для просмотра соседних карт щелкайте зеленые стрелки.


METAR-TAF: